Time;durP1;ratioP1;P1;durP2;ratioP2;P2;SDS_P1;SDS_P2;PMS_P1;PMS_P2;Temp;Humidity;BMP_temperature;BMP_pressure;BME280_temperature;BME280_humidity;BME280_pressure;Samples;Min_cycle;Max_cycle;Signal;HPM_P1;HPM_P2
2022/08/20 00:00:16;;;;;;;;;;;20.60;99.90;;;;;;4229843;28;19929;-62
2022/08/20 00:02:17;;;;;;;;;;;20.60;99.90;;;;;;4228063;28;19933;-62
2022/08/20 00:04:18;;;;;;;;;;;20.60;99.90;;;;;;4229346;28;19907;-63
2022/08/20 00:06:21;;;;;;;;;;;20.50;99.90;;;;;;4228035;28;19903;-63
2022/08/20 00:08:22;;;;;;;;;;;20.50;99.90;;;;;;4228625;28;19904;-63
2022/08/20 00:10:24;;;;;;;;;;;20.40;99.90;;;;;;4228272;28;19904;-63
2022/08/20 00:12:24;;;;;;;;;;;20.30;99.90;;;;;;4228728;28;19907;-63
2022/08/20 00:14:25;;;;;;;;;;;20.30;99.90;;;;;;4227821;28;19907;-63
2022/08/20 00:16:31;;;;;;;;;;;20.20;99.90;;;;;;4228505;28;20047;-63
2022/08/20 00:18:32;;;;;;;;;;;20.20;99.90;;;;;;4228650;28;19915;-63
2022/08/20 00:20:35;;;;;;;;;;;20.20;99.90;;;;;;4227742;28;19907;-64
2022/08/20 00:22:36;;;;;;;;;;;20.20;99.90;;;;;;4228377;28;20333;-62
2022/08/20 00:24:37;;;;;;;;;;;20.10;99.90;;;;;;4227803;28;19904;-62
2022/08/20 00:26:38;;;;;;;;;;;20.10;99.90;;;;;;4229192;28;19953;-62
2022/08/20 00:28:39;;;;;;;;;;;20.10;99.90;;;;;;4227334;28;19907;-62
2022/08/20 00:30:41;;;;;;;;;;;20.10;99.90;;;;;;4229263;28;19911;-63
2022/08/20 00:32:45;;;;;;;;;;;20.10;99.90;;;;;;4227912;28;19904;-63
2022/08/20 00:34:46;;;;;;;;;;;20.10;99.90;;;;;;4228832;28;19915;-63
2022/08/20 00:36:47;;;;;;;;;;;20.20;99.90;;;;;;4227059;28;19923;-64
2022/08/20 00:38:48;;;;;;;;;;;20.20;99.90;;;;;;4228992;28;20322;-63
2022/08/20 00:40:54;;;;;;;;;;;20.20;99.90;;;;;;4227718;28;19903;-64
2022/08/20 00:42:57;;;;;;;;;;;20.20;99.90;;;;;;4228632;28;19904;-63
2022/08/20 00:44:58;;;;;;;;;;;20.10;99.90;;;;;;4227595;28;20348;-63
2022/08/20 00:46:58;;;;;;;;;;;20.10;99.90;;;;;;4228326;28;19953;-63
2022/08/20 00:49:02;;;;;;;;;;;20.00;99.90;;;;;;4228081;28;19944;-63
2022/08/20 00:51:05;;;;;;;;;;;19.90;99.90;;;;;;4227884;28;19903;-62
2022/08/20 00:53:07;;;;;;;;;;;19.90;99.90;;;;;;4228001;28;19900;-63
2022/08/20 00:55:09;;;;;;;;;;;19.80;99.90;;;;;;4227752;28;19907;-63
2022/08/20 00:57:15;;;;;;;;;;;19.70;99.90;;;;;;4228027;28;19997;-62
2022/08/20 00:59:24;;;;;;;;;;;19.50;99.90;;;;;;4227489;28;19953;-63
2022/08/20 01:01:25;;;;;;;;;;;19.40;99.90;;;;;;4229022;28;19953;-64
2022/08/20 01:03:26;;;;;;;;;;;19.30;99.90;;;;;;4227223;28;19957;-63
2022/08/20 01:05:28;;;;;;;;;;;19.20;99.90;;;;;;4226856;28;20384;-62
2022/08/20 01:07:33;;;;;;;;;;;19.10;99.90;;;;;;4227342;28;19904;-62
2022/08/20 01:09:36;;;;;;;;;;;19.00;99.90;;;;;;4228732;28;19904;-63
2022/08/20 01:11:37;;;;;;;;;;;19.00;99.90;;;;;;4227453;28;19903;-62
2022/08/20 01:13:39;;;;;;;;;;;19.00;99.90;;;;;;4228566;28;20279;-62
2022/08/20 01:15:41;;;;;;;;;;;19.00;99.90;;;;;;4227361;28;19949;-63
2022/08/20 01:17:44;;;;;;;;;;;19.00;99.90;;;;;;4228525;28;20409;-63
2022/08/20 01:19:51;;;;;;;;;;;19.00;99.90;;;;;;4227389;28;20405;-62
2022/08/20 01:21:52;;;;;;;;;;;19.00;99.90;;;;;;4228362;28;19912;-63
2022/08/20 01:24:14;;;;;;;;;;;19.10;99.90;;;;;;4226808;28;19916;-62
2022/08/20 01:26:15;;;;;;;;;;;19.10;99.90;;;;;;4231375;28;19912;-63
2022/08/20 01:28:17;;;;;;;;;;;19.20;99.90;;;;;;4230778;28;19906;-63
2022/08/20 01:30:18;;;;;;;;;;;19.20;99.90;;;;;;4231772;28;19911;-63
2022/08/20 01:32:19;;;;;;;;;;;19.10;99.90;;;;;;4231049;28;19957;-63
2022/08/20 01:34:21;;;;;;;;;;;19.10;99.90;;;;;;4230646;28;19910;-63
2022/08/20 01:36:48;;;;;;;;;;;19.10;99.90;;;;;;4231101;28;19953;-63
2022/08/20 01:38:49;;;;;;;;;;;19.00;99.90;;;;;;4228647;28;19972;-64
2022/08/20 01:40:59;;;;;;;;;;;19.00;99.90;;;;;;4231034;28;19939;-63
2022/08/20 01:43:00;;;;;;;;;;;18.90;99.90;;;;;;4231030;28;19933;-62
2022/08/20 01:45:01;;;;;;;;;;;18.80;99.90;;;;;;4231151;28;19949;-63
2022/08/20 01:47:08;;;;;;;;;;;18.80;99.90;;;;;;4230113;28;20435;-63
2022/08/20 01:49:21;;;;;;;;;;;18.90;99.90;;;;;;4231196;28;20347;-62
2022/08/20 01:51:29;;;;;;;;;;;18.90;99.90;;;;;;4230329;28;19911;-64
2022/08/20 01:53:36;;;;;;;;;;;19.00;99.90;;;;;;4231117;28;19960;-63
2022/08/20 01:55:37;;;;;;;;;;;18.90;99.90;;;;;;4230088;28;20483;-63
2022/08/20 01:57:38;;;;;;;;;;;18.90;99.90;;;;;;4231214;28;19986;-63
2022/08/20 01:59:40;;;;;;;;;;;18.80;99.90;;;;;;4229866;28;20249;-63
2022/08/20 02:01:41;;;;;;;;;;;18.80;99.90;;;;;;4231740;28;20340;-63
2022/08/20 02:03:42;;;;;;;;;;;18.80;99.90;;;;;;4230062;28;19904;-63
2022/08/20 02:05:43;;;;;;;;;;;18.80;99.90;;;;;;4231207;28;19915;-63
2022/08/20 02:07:44;;;;;;;;;;;18.80;99.90;;;;;;4230089;28;19949;-63
2022/08/20 02:09:46;;;;;;;;;;;18.90;99.90;;;;;;4231072;28;19947;-63
2022/08/20 02:11:47;;;;;;;;;;;18.90;99.90;;;;;;4229944;28;19965;-63
2022/08/20 02:13:51;;;;;;;;;;;18.80;99.90;;;;;;4230657;28;19912;-63
2022/08/20 02:15:54;;;;;;;;;;;18.90;99.90;;;;;;4230087;28;19899;-63
2022/08/20 02:17:56;;;;;;;;;;;18.90;99.90;;;;;;4230143;28;19981;-63
2022/08/20 02:20:00;;;;;;;;;;;19.00;99.90;;;;;;4230240;28;19904;-63
2022/08/20 02:22:05;;;;;;;;;;;19.10;99.90;;;;;;4230231;28;19960;-63
2022/08/20 02:24:06;;;;;;;;;;;19.10;99.90;;;;;;4230083;28;19984;-63
2022/08/20 02:26:08;;;;;;;;;;;19.10;99.90;;;;;;4229911;28;19912;-63
2022/08/20 02:28:11;;;;;;;;;;;19.00;99.90;;;;;;4230525;28;19908;-63
2022/08/20 02:30:14;;;;;;;;;;;18.90;99.90;;;;;;4229611;28;20363;-63
2022/08/20 02:32:15;;;;;;;;;;;18.90;99.90;;;;;;4231235;28;19911;-63
2022/08/20 02:34:16;;;;;;;;;;;18.90;99.90;;;;;;4229631;28;19956;-63
2022/08/20 02:36:17;;;;;;;;;;;18.90;99.90;;;;;;4230026;28;19910;-63
2022/08/20 02:38:18;;;;;;;;;;;18.80;99.90;;;;;;4229489;28;19973;-63
2022/08/20 02:40:20;;;;;;;;;;;18.80;99.90;;;;;;4230621;28;20035;-63
2022/08/20 02:42:21;;;;;;;;;;;18.70;99.90;;;;;;4229533;28;19933;-63
2022/08/20 02:44:22;;;;;;;;;;;18.70;99.90;;;;;;4230671;28;19903;-62
2022/08/20 02:46:23;;;;;;;;;;;18.70;99.90;;;;;;4229265;28;19953;-63
2022/08/20 02:48:24;;;;;;;;;;;18.60;99.90;;;;;;4229999;27;19912;-65
2022/08/20 02:50:26;;;;;;;;;;;18.50;99.90;;;;;;4229445;28;20321;-63
2022/08/20 02:52:27;;;;;;;;;;;18.40;99.90;;;;;;4229866;28;19908;-64
2022/08/20 02:54:28;;;;;;;;;;;18.20;99.90;;;;;;4229756;28;19907;-63
2022/08/20 02:56:29;;;;;;;;;;;18.10;99.90;;;;;;4229714;28;19931;-63
2022/08/20 02:58:30;;;;;;;;;;;17.90;99.90;;;;;;4229534;28;19915;-63
2022/08/20 03:00:31;;;;;;;;;;;17.90;99.90;;;;;;4229262;28;19966;-63
2022/08/20 03:02:32;;;;;;;;;;;17.80;99.90;;;;;;4230150;28;20733;-64
2022/08/20 03:04:33;;;;;;;;;;;17.80;99.90;;;;;;4229107;28;19911;-63
2022/08/20 03:06:34;;;;;;;;;;;17.80;99.90;;;;;;4230024;28;19998;-63
2022/08/20 03:08:36;;;;;;;;;;;17.90;99.90;;;;;;4229025;28;20355;-64
2022/08/20 03:10:38;;;;;;;;;;;17.90;99.90;;;;;;4230288;28;19957;-64
2022/08/20 03:12:39;;;;;;;;;;;18.00;99.90;;;;;;4228333;27;19949;-64
2022/08/20 03:14:40;;;;;;;;;;;18.10;99.90;;;;;;4230224;28;19957;-63
2022/08/20 03:16:42;;;;;;;;;;;18.10;99.90;;;;;;4228840;28;19904;-64
2022/08/20 03:18:44;;;;;;;;;;;18.20;99.90;;;;;;4228025;28;19965;-64
2022/08/20 03:20:45;;;;;;;;;;;18.30;99.90;;;;;;4228904;28;19912;-64
2022/08/20 03:22:48;;;;;;;;;;;18.40;99.90;;;;;;4229249;28;19911;-66
2022/08/20 03:24:48;;;;;;;;;;;18.40;99.90;;;;;;4228698;27;19912;-64
2022/08/20 03:26:49;;;;;;;;;;;18.50;99.90;;;;;;4229059;28;19910;-64
2022/08/20 03:28:50;;;;;;;;;;;18.50;99.90;;;;;;4229135;28;19907;-65
2022/08/20 03:30:52;;;;;;;;;;;18.60;99.90;;;;;;4226944;28;19904;-64
2022/08/20 03:32:53;;;;;;;;;;;18.60;99.90;;;;;;4229871;28;19912;-64
2022/08/20 03:34:54;;;;;;;;;;;18.60;99.90;;;;;;4228654;28;19903;-64
2022/08/20 03:36:55;;;;;;;;;;;18.70;99.90;;;;;;4229680;28;19908;-64
2022/08/20 03:38:57;;;;;;;;;;;18.80;99.90;;;;;;4226784;28;19912;-64
2022/08/20 03:40:58;;;;;;;;;;;18.80;99.90;;;;;;4229595;28;20438;-65
2022/08/20 03:42:59;;;;;;;;;;;18.80;99.90;;;;;;4228515;28;19903;-64
2022/08/20 03:45:00;;;;;;;;;;;18.80;99.90;;;;;;4229559;28;19957;-64
2022/08/20 03:47:06;;;;;;;;;;;18.70;99.90;;;;;;4228476;28;20313;-63
2022/08/20 03:49:07;;;;;;;;;;;18.70;99.90;;;;;;4228577;28;19907;-65
2022/08/20 03:51:08;;;;;;;;;;;18.70;99.90;;;;;;4228248;28;19933;-65
2022/08/20 03:53:11;;;;;;;;;;;18.70;99.90;;;;;;4228713;28;19912;-63
2022/08/20 03:55:12;;;;;;;;;;;18.80;99.90;;;;;;4228198;28;19961;-64
2022/08/20 03:57:14;;;;;;;;;;;18.80;99.90;;;;;;4229389;28;19923;-64
2022/08/20 03:59:15;;;;;;;;;;;18.90;99.90;;;;;;4228436;28;19968;-64
2022/08/20 04:01:17;;;;;;;;;;;19.00;99.90;;;;;;4228518;28;19903;-66
2022/08/20 04:03:18;;;;;;;;;;;19.20;99.90;;;;;;4217497;28;19908;-64
2022/08/20 04:05:19;;;;;;;;;;;19.40;99.90;;;;;;4227341;27;20015;-64
2022/08/20 04:07:24;;;;;;;;;;;19.60;99.90;;;;;;4229462;28;19921;-63
2022/08/20 04:09:25;;;;;;;;;;;19.90;99.90;;;;;;4228043;28;19908;-64
2022/08/20 04:11:26;;;;;;;;;;;20.30;99.90;;;;;;4228597;27;19957;-65
2022/08/20 04:13:29;;;;;;;;;;;20.70;99.90;;;;;;4227937;28;19997;-64
2022/08/20 04:15:31;;;;;;;;;;;21.10;99.90;;;;;;4229112;27;19908;-66
2022/08/20 04:17:32;;;;;;;;;;;21.30;99.90;;;;;;4227995;28;20379;-65
2022/08/20 04:19:34;;;;;;;;;;;21.60;99.90;;;;;;4229439;27;19908;-64
2022/08/20 04:21:35;;;;;;;;;;;22.00;99.90;;;;;;4227537;27;19908;-64
2022/08/20 04:23:38;;;;;;;;;;;22.20;99.90;;;;;;4228972;28;19960;-66
2022/08/20 04:25:40;;;;;;;;;;;22.40;99.90;;;;;;4227853;27;19904;-65
2022/08/20 04:27:41;;;;;;;;;;;22.60;99.90;;;;;;4228254;28;19968;-66
2022/08/20 04:29:43;;;;;;;;;;;22.70;99.90;;;;;;4227140;28;20384;-63
2022/08/20 04:31:44;;;;;;;;;;;22.60;99.90;;;;;;4228273;27;19903;-64
2022/08/20 04:33:45;;;;;;;;;;;22.80;99.90;;;;;;4228668;28;20356;-63
2022/08/20 04:35:45;;;;;;;;;;;23.10;99.90;;;;;;4227032;27;19904;-64
2022/08/20 04:37:47;;;;;;;;;;;23.50;99.90;;;;;;4228893;28;19992;-64
2022/08/20 04:40:52;;;;;;;;;;;24.00;99.90;;;;;;4227756;28;20302;-64
2022/08/20 04:42:09;;;;;;;;;;;24.30;99.90;;;;;;4228345;27;20314;-64
2022/08/20 04:44:10;;;;;;;;;;;24.50;99.90;;;;;;4227586;28;19907;-63
2022/08/20 04:46:12;;;;;;;;;;;24.70;99.90;;;;;;4228824;28;19903;-63
2022/08/20 04:48:13;;;;;;;;;;;25.00;99.90;;;;;;4227590;28;19907;-63
2022/08/20 04:50:15;;;;;;;;;;;25.20;99.90;;;;;;4228131;28;19908;-64
2022/08/20 04:52:16;;;;;;;;;;;25.50;99.90;;;;;;4227444;28;19908;-62
2022/08/20 04:54:17;;;;;;;;;;;25.90;99.90;;;;;;4228772;28;20012;-63
2022/08/20 04:56:22;;;;;;;;;;;26.10;99.90;;;;;;4227311;28;20259;-65
2022/08/20 04:58:26;;;;;;;;;;;26.20;99.90;;;;;;4228307;28;19937;-64
2022/08/20 05:00:27;;;;;;;;;;;26.40;99.90;;;;;;4231274;28;19953;-62
2022/08/20 05:02:29;;;;;;;;;;;26.50;99.90;;;;;;4234340;28;20350;-64
2022/08/20 05:04:30;;;;;;;;;;;26.60;99.90;;;;;;4232957;28;19949;-65
2022/08/20 05:06:31;;;;;;;;;;;26.80;99.90;;;;;;4233327;28;20599;-63
2022/08/20 05:08:33;;;;;;;;;;;26.40;99.90;;;;;;4233213;28;19957;-62
2022/08/20 05:10:35;;;;;;;;;;;26.00;99.90;;;;;;4233083;27;20278;-65
2022/08/20 05:12:36;;;;;;;;;;;25.60;99.90;;;;;;4233586;28;19949;-65
2022/08/20 05:14:38;;;;;;;;;;;25.30;99.90;;;;;;4232952;28;19907;-62
2022/08/20 05:16:39;;;;;;;;;;;25.50;99.90;;;;;;4233934;28;20326;-62
2022/08/20 05:18:41;;;;;;;;;;;25.60;99.90;;;;;;4232613;28;19955;-63
2022/08/20 05:20:42;;;;;;;;;;;25.50;99.90;;;;;;4234034;28;19937;-63
2022/08/20 05:22:43;;;;;;;;;;;25.70;99.90;;;;;;4232604;28;19958;-63
2022/08/20 05:24:44;;;;;;;;;;;26.00;99.90;;;;;;4233967;28;19908;-63
2022/08/20 05:26:45;;;;;;;;;;;26.10;99.90;;;;;;4230619;28;19988;-63
2022/08/20 05:28:48;;;;;;;;;;;26.40;99.90;;;;;;4233674;27;19949;-64
2022/08/20 05:30:49;;;;;;;;;;;26.70;99.90;;;;;;4232488;27;19903;-63
2022/08/20 05:32:50;;;;;;;;;;;27.00;99.90;;;;;;4233993;28;20755;-63
2022/08/20 05:34:51;;;;;;;;;;;27.30;99.90;;;;;;4232876;27;20256;-63
2022/08/20 05:36:52;;;;;;;;;;;27.30;99.90;;;;;;4233139;28;19908;-63
2022/08/20 05:38:53;;;;;;;;;;;27.40;99.90;;;;;;4232927;28;20405;-63
2022/08/20 05:40:54;;;;;;;;;;;27.40;99.90;;;;;;4232977;28;20389;-63
2022/08/20 05:42:55;;;;;;;;;;;28.00;99.90;;;;;;4233386;28;19957;-63
2022/08/20 05:44:56;;;;;;;;;;;28.60;99.90;;;;;;4232748;28;19977;-63
2022/08/20 05:46:57;;;;;;;;;;;29.20;99.90;;;;;;4233583;28;19912;-63
2022/08/20 05:49:00;;;;;;;;;;;29.60;99.40;;;;;;4232604;28;19903;-64
2022/08/20 05:51:01;;;;;;;;;;;29.10;99.50;;;;;;4233518;28;20355;-63
2022/08/20 05:53:02;;;;;;;;;;;29.30;99.60;;;;;;4230845;28;19908;-62
2022/08/20 05:55:04;;;;;;;;;;;29.40;99.20;;;;;;4233415;28;19948;-62
2022/08/20 05:57:05;;;;;;;;;;;29.70;98.70;;;;;;4232366;28;19903;-62
2022/08/20 05:59:07;;;;;;;;;;;29.10;98.80;;;;;;4233539;28;19916;-62
2022/08/20 06:01:08;;;;;;;;;;;28.70;99.30;;;;;;4230987;27;19968;-62
2022/08/20 06:05:28;;;;;;;;;;;28.10;99.90;;;;;;4232454;28;19961;-62
2022/08/20 06:07:29;;;;;;;;;;;27.90;99.90;;;;;;4233409;28;19904;-62
2022/08/20 06:09:31;;;;;;;;;;;27.90;99.90;;;;;;4232489;27;19908;-61
2022/08/20 06:11:32;;;;;;;;;;;27.70;99.90;;;;;;4230879;28;20939;-63
2022/08/20 06:13:33;;;;;;;;;;;27.50;99.90;;;;;;4229873;28;19904;-62
2022/08/20 06:15:35;;;;;;;;;;;27.00;99.90;;;;;;4229994;28;19908;-63
2022/08/20 06:17:36;;;;;;;;;;;26.70;99.90;;;;;;4230394;28;19904;-64
2022/08/20 06:19:37;;;;;;;;;;;26.60;99.90;;;;;;4229663;28;20336;-63
2022/08/20 06:21:39;;;;;;;;;;;26.60;99.90;;;;;;4230835;28;20348;-63
2022/08/20 06:23:41;;;;;;;;;;;26.50;99.90;;;;;;4229354;28;19924;-63
2022/08/20 06:25:41;;;;;;;;;;;26.50;99.90;;;;;;4230604;28;19904;-63
2022/08/20 06:27:42;;;;;;;;;;;26.80;99.90;;;;;;4229621;28;19954;-63
2022/08/20 06:29:43;;;;;;;;;;;27.00;99.90;;;;;;4230582;28;19904;-64
2022/08/20 06:31:45;;;;;;;;;;;26.90;99.90;;;;;;4227956;28;19907;-63
2022/08/20 06:33:45;;;;;;;;;;;27.00;99.90;;;;;;4230354;28;19953;-63
2022/08/20 06:35:47;;;;;;;;;;;27.00;99.90;;;;;;4229162;28;20280;-63
2022/08/20 06:37:49;;;;;;;;;;;26.90;99.90;;;;;;4230122;28;19953;-63
2022/08/20 06:39:50;;;;;;;;;;;26.60;99.90;;;;;;4229211;28;19919;-64
2022/08/20 06:41:51;;;;;;;;;;;26.60;99.90;;;;;;4230047;28;19904;-64
2022/08/20 06:43:52;;;;;;;;;;;26.40;99.90;;;;;;4229330;28;19910;-63
2022/08/20 06:45:56;;;;;;;;;;;26.50;99.90;;;;;;4229637;28;19947;-64
2022/08/20 06:47:59;;;;;;;;;;;26.50;99.90;;;;;;4229515;28;20322;-62
2022/08/20 06:50:00;;;;;;;;;;;26.40;99.90;;;;;;4229419;28;20444;-63
2022/08/20 06:52:03;;;;;;;;;;;26.40;99.90;;;;;;4230069;28;20345;-63
2022/08/20 06:54:04;;;;;;;;;;;26.40;99.90;;;;;;4228512;28;19904;-63
2022/08/20 06:56:05;;;;;;;;;;;26.40;99.90;;;;;;4230174;28;19954;-63
2022/08/20 06:58:07;;;;;;;;;;;26.60;99.90;;;;;;4228775;28;19954;-63
2022/08/20 07:00:11;;;;;;;;;;;26.70;99.90;;;;;;4229975;28;19907;-63
2022/08/20 07:02:12;;;;;;;;;;;26.70;99.90;;;;;;4228804;28;19911;-63
2022/08/20 07:04:14;;;;;;;;;;;26.80;99.90;;;;;;4229785;28;19908;-63
2022/08/20 07:06:16;;;;;;;;;;;26.90;99.90;;;;;;4228655;28;19949;-63
2022/08/20 07:08:21;;;;;;;;;;;27.00;99.90;;;;;;4229861;28;19973;-64
2022/08/20 07:10:23;;;;;;;;;;;27.10;99.90;;;;;;4228733;28;19953;-62
2022/08/20 07:12:25;;;;;;;;;;;27.10;99.90;;;;;;4229977;28;19957;-63
2022/08/20 07:14:26;;;;;;;;;;;27.00;99.90;;;;;;4228737;28;20900;-62
2022/08/20 07:16:27;;;;;;;;;;;27.30;99.90;;;;;;4229595;28;19973;-63
2022/08/20 07:18:28;;;;;;;;;;;27.40;99.90;;;;;;4228772;28;20018;-62
2022/08/20 07:20:30;;;;;;;;;;;27.50;99.90;;;;;;4229183;28;20279;-64
2022/08/20 07:22:35;;;;;;;;;;;27.60;99.90;;;;;;4229090;28;19955;-63
2022/08/20 07:24:37;;;;;;;;;;;27.60;99.90;;;;;;4228769;28;20006;-64
2022/08/20 07:26:38;;;;;;;;;;;27.70;99.90;;;;;;4229104;28;19904;-63
2022/08/20 07:28:39;;;;;;;;;;;27.60;99.90;;;;;;4228063;28;19907;-63
2022/08/20 07:33:00;;;;;;;;;;;27.90;99.90;;;;;;4228478;28;20305;-63
2022/08/20 07:35:03;;;;;;;;;;;28.10;99.90;;;;;;4229294;28;19911;-62
2022/08/20 07:37:04;;;;;;;;;;;28.10;99.90;;;;;;4228056;28;19908;-63
2022/08/20 07:39:05;;;;;;;;;;;28.20;99.90;;;;;;4228914;28;20409;-63
2022/08/20 07:41:07;;;;;;;;;;;28.50;99.40;;;;;;4227875;28;20476;-63
2022/08/20 07:43:09;;;;;;;;;;;28.50;99.30;;;;;;4229341;28;19904;-63
2022/08/20 07:45:11;;;;;;;;;;;28.60;99.00;;;;;;4228220;28;20277;-63
2022/08/20 07:47:12;;;;;;;;;;;28.60;99.40;;;;;;4229262;28;19907;-63
2022/08/20 07:49:13;;;;;;;;;;;28.60;99.00;;;;;;4227775;28;19904;-63
2022/08/20 07:51:16;;;;;;;;;;;28.80;99.00;;;;;;4228680;28;19914;-64
2022/08/20 07:53:17;;;;;;;;;;;28.90;98.60;;;;;;4228045;28;19911;-62
2022/08/20 07:55:19;;;;;;;;;;;29.00;98.70;;;;;;4228740;28;19969;-63
2022/08/20 07:57:20;;;;;;;;;;;29.10;98.30;;;;;;4228207;28;19911;-64
2022/08/20 07:59:23;;;;;;;;;;;29.20;98.30;;;;;;4228386;28;19916;-63
2022/08/20 08:01:28;;;;;;;;;;;29.10;97.90;;;;;;4228482;28;19969;-63
2022/08/20 08:03:30;;;;;;;;;;;29.10;97.70;;;;;;4228255;28;20344;-64
2022/08/20 08:05:33;;;;;;;;;;;29.30;97.70;;;;;;4228608;28;19945;-63
2022/08/20 08:07:34;;;;;;;;;;;29.30;97.70;;;;;;4227852;28;19904;-63
2022/08/20 08:09:36;;;;;;;;;;;29.30;97.60;;;;;;4228808;28;19945;-63
2022/08/20 08:11:37;;;;;;;;;;;29.50;97.40;;;;;;4227479;28;19934;-62
2022/08/20 08:13:39;;;;;;;;;;;29.50;97.40;;;;;;4228565;28;19911;-63
2022/08/20 08:15:47;;;;;;;;;;;29.60;97.20;;;;;;4226065;28;19972;-63
2022/08/20 08:17:48;;;;;;;;;;;29.80;97.00;;;;;;4228001;28;19904;-63
2022/08/20 08:19:49;;;;;;;;;;;30.00;96.70;;;;;;4227422;28;20398;-64
2022/08/20 08:21:50;;;;;;;;;;;30.00;96.70;;;;;;4228601;28;19948;-64
2022/08/20 08:23:52;;;;;;;;;;;29.90;96.40;;;;;;4226393;28;20395;-62
2022/08/20 08:25:53;;;;;;;;;;;29.90;96.60;;;;;;4228356;28;19912;-64
2022/08/20 08:27:54;;;;;;;;;;;29.90;96.30;;;;;;4227542;28;19904;-63
2022/08/20 08:29:55;;;;;;;;;;;29.80;96.30;;;;;;4228194;28;19933;-63
2022/08/20 08:31:56;;;;;;;;;;;29.80;96.30;;;;;;4227490;28;19974;-63
2022/08/20 08:33:57;;;;;;;;;;;30.00;96.20;;;;;;4226341;28;19978;-62
2022/08/20 08:36:11;;;;;;;;;;;30.30;95.90;;;;;;4227655;28;19904;-62
2022/08/20 08:38:12;;;;;;;;;;;30.40;95.50;;;;;;4227827;28;19908;-63
2022/08/20 08:40:13;;;;;;;;;;;30.40;95.50;;;;;;4227857;28;19960;-63
2022/08/20 08:42:32;;;;;;;;;;;30.50;95.60;;;;;;4227208;28;19951;-62
2022/08/20 08:44:37;;;;;;;;;;;30.70;95.70;;;;;;4227764;28;19979;-63
2022/08/20 08:46:39;;;;;;;;;;;30.80;95.30;;;;;;4227245;28;19952;-62
2022/08/20 08:48:43;;;;;;;;;;;30.90;94.50;;;;;;4228016;28;20059;-62
2022/08/20 08:50:46;;;;;;;;;;;31.00;94.30;;;;;;4227134;28;19904;-63
2022/08/20 08:52:49;;;;;;;;;;;31.20;94.00;;;;;;4228351;28;19972;-63
2022/08/20 08:54:54;;;;;;;;;;;31.20;94.10;;;;;;4227292;28;19907;-63
2022/08/20 08:56:55;;;;;;;;;;;31.20;93.80;;;;;;4228503;28;20031;-64
2022/08/20 08:59:03;;;;;;;;;;;31.50;94.30;;;;;;4227016;28;19912;-63
2022/08/20 09:01:10;;;;;;;;;;;31.80;93.90;;;;;;4226148;28;19937;-64
2022/08/20 09:03:16;;;;;;;;;;;32.10;93.80;;;;;;4225500;28;19933;-63
2022/08/20 09:05:19;;;;;;;;;;;32.10;93.10;;;;;;4228566;28;19904;-64
2022/08/20 09:07:23;;;;;;;;;;;32.10;92.70;;;;;;4227368;28;19907;-64
2022/08/20 09:09:27;;;;;;;;;;;32.20;93.00;;;;;;4228276;28;19972;-63
2022/08/20 09:11:29;;;;;;;;;;;31.80;92.80;;;;;;4227154;28;20654;-63
2022/08/20 09:13:30;;;;;;;;;;;31.70;92.30;;;;;;4228151;28;19904;-63
2022/08/20 09:15:31;;;;;;;;;;;31.30;92.70;;;;;;4226921;28;19933;-63
2022/08/20 09:17:32;;;;;;;;;;;31.20;92.70;;;;;;4228259;28;19958;-64
2022/08/20 09:19:32;;;;;;;;;;;30.90;93.00;;;;;;4227127;28;19976;-64
2022/08/20 09:21:33;;;;;;;;;;;30.60;93.00;;;;;;4227397;28;19912;-63
2022/08/20 09:23:34;;;;;;;;;;;30.70;93.00;;;;;;4227596;28;20014;-65
2022/08/20 09:25:36;;;;;;;;;;;30.70;93.10;;;;;;4227203;28;20348;-63
2022/08/20 09:27:37;;;;;;;;;;;30.80;93.00;;;;;;4227861;28;19950;-64
2022/08/20 09:29:38;;;;;;;;;;;30.70;92.90;;;;;;4227020;28;19908;-63
2022/08/20 09:31:39;;;;;;;;;;;30.90;92.90;;;;;;4228301;28;19903;-62
2022/08/20 09:33:40;;;;;;;;;;;31.00;92.60;;;;;;4227063;28;19903;-62
2022/08/20 09:35:43;;;;;;;;;;;31.30;92.50;;;;;;4228074;28;20256;-63
2022/08/20 09:37:45;;;;;;;;;;;31.50;92.20;;;;;;4226667;28;20309;-63
2022/08/20 09:39:47;;;;;;;;;;;31.80;92.30;;;;;;4227924;28;19924;-63
2022/08/20 09:41:47;;;;;;;;;;;31.90;92.00;;;;;;4226791;28;20278;-63
2022/08/20 09:43:48;;;;;;;;;;;31.80;91.60;;;;;;4227948;28;19911;-63
2022/08/20 09:45:49;;;;;;;;;;;31.80;91.60;;;;;;4226853;28;19943;-63
2022/08/20 09:47:50;;;;;;;;;;;31.70;90.70;;;;;;4230427;28;19951;-63
2022/08/20 09:49:52;;;;;;;;;;;31.60;90.90;;;;;;4230179;27;19900;-62
2022/08/20 09:51:53;;;;;;;;;;;31.50;90.80;;;;;;4230789;28;20317;-63
2022/08/20 09:53:54;;;;;;;;;;;31.40;91.00;;;;;;4230915;28;19943;-63
2022/08/20 09:55:55;;;;;;;;;;;31.50;91.00;;;;;;4230276;28;19950;-63
2022/08/20 09:57:57;;;;;;;;;;;31.50;90.70;;;;;;4230608;28;19908;-63
2022/08/20 10:00:00;;;;;;;;;;;31.40;90.90;;;;;;4229853;27;19941;-63
2022/08/20 10:02:01;;;;;;;;;;;31.40;90.30;;;;;;4230870;28;19907;-63
2022/08/20 10:04:02;;;;;;;;;;;31.50;90.80;;;;;;4229898;28;19948;-64
2022/08/20 10:06:03;;;;;;;;;;;31.50;90.80;;;;;;4231216;28;19957;-65
2022/08/20 10:08:05;;;;;;;;;;;31.60;88.70;;;;;;4229847;28;20351;-62
2022/08/20 10:10:07;;;;;;;;;;;31.70;89.10;;;;;;4230937;28;20280;-63
2022/08/20 10:12:08;;;;;;;;;;;31.70;89.20;;;;;;4229661;28;19937;-62
2022/08/20 10:14:09;;;;;;;;;;;31.60;89.00;;;;;;4230597;28;19904;-62
2022/08/20 10:16:10;;;;;;;;;;;31.60;89.80;;;;;;4229720;28;19904;-62
2022/08/20 10:18:11;;;;;;;;;;;31.70;89.40;;;;;;4230707;28;19908;-62
2022/08/20 10:20:13;;;;;;;;;;;31.80;89.40;;;;;;4228475;27;19915;-62
2022/08/20 10:22:14;;;;;;;;;;;31.70;88.80;;;;;;4229999;27;20325;-62
2022/08/20 10:24:15;;;;;;;;;;;31.80;88.60;;;;;;4230381;28;20017;-63
2022/08/20 10:26:16;;;;;;;;;;;31.90;88.70;;;;;;4229720;28;20385;-64
2022/08/20 10:28:17;;;;;;;;;;;31.90;88.70;;;;;;4230128;28;19957;-62
2022/08/20 10:30:18;;;;;;;;;;;31.90;87.00;;;;;;4229607;28;20290;-63
2022/08/20 10:32:19;;;;;;;;;;;31.90;86.80;;;;;;4230437;28;19904;-63
2022/08/20 10:34:20;;;;;;;;;;;31.90;86.90;;;;;;4229221;28;19968;-63
2022/08/20 10:36:21;;;;;;;;;;;31.90;86.10;;;;;;4230524;28;20344;-62
2022/08/20 10:38:21;;;;;;;;;;;31.80;85.70;;;;;;4229263;28;19929;-62
2022/08/20 10:40:22;;;;;;;;;;;31.80;85.60;;;;;;4230393;28;20257;-63
2022/08/20 10:42:23;;;;;;;;;;;31.90;85.30;;;;;;4229142;28;20357;-63
2022/08/20 10:44:24;;;;;;;;;;;31.90;85.10;;;;;;4230317;28;20030;-62
2022/08/20 10:46:25;;;;;;;;;;;31.90;83.50;;;;;;4228955;28;19904;-63
2022/08/20 10:48:26;;;;;;;;;;;31.90;83.80;;;;;;4230069;28;20370;-62
2022/08/20 10:50:28;;;;;;;;;;;31.90;83.40;;;;;;4228911;28;19904;-62
2022/08/20 10:52:28;;;;;;;;;;;32.00;84.10;;;;;;4229422;28;20314;-62
2022/08/20 10:54:29;;;;;;;;;;;32.10;81.70;;;;;;4229612;28;19904;-63
2022/08/20 10:56:30;;;;;;;;;;;32.10;82.10;;;;;;4229162;28;19957;-62
2022/08/20 10:58:31;;;;;;;;;;;32.10;81.80;;;;;;4229115;28;19981;-63
2022/08/20 11:00:32;;;;;;;;;;;32.10;79.30;;;;;;4229124;27;19916;-63
2022/08/20 11:02:33;;;;;;;;;;;32.20;80.40;;;;;;4229882;28;20251;-63
2022/08/20 11:04:35;;;;;;;;;;;32.20;79.30;;;;;;4228529;28;19907;-63
2022/08/20 11:06:36;;;;;;;;;;;32.30;79.50;;;;;;4229585;28;19912;-63
2022/08/20 11:08:36;;;;;;;;;;;32.40;78.90;;;;;;4228529;28;19976;-62
2022/08/20 11:10:38;;;;;;;;;;;32.50;79.00;;;;;;4229499;28;20009;-62
2022/08/20 11:12:39;;;;;;;;;;;32.60;77.80;;;;;;4228410;28;19994;-62
2022/08/20 11:14:40;;;;;;;;;;;32.70;77.70;;;;;;4229817;28;19907;-62
2022/08/20 11:16:41;;;;;;;;;;;32.60;73.90;;;;;;4228655;27;19907;-62
2022/08/20 11:18:42;;;;;;;;;;;32.50;73.20;;;;;;4229533;28;20361;-63
2022/08/20 11:20:42;;;;;;;;;;;32.50;74.60;;;;;;4228820;28;19915;-63
2022/08/20 11:22:45;;;;;;;;;;;32.60;74.10;;;;;;4229089;28;19916;-65
2022/08/20 11:24:46;;;;;;;;;;;32.60;76.30;;;;;;4229412;28;19911;-63
2022/08/20 11:26:47;;;;;;;;;;;32.60;76.90;;;;;;4228928;28;19929;-63
2022/08/20 11:28:48;;;;;;;;;;;32.60;76.50;;;;;;4229537;28;20301;-62
2022/08/20 11:30:49;;;;;;;;;;;32.50;75.90;;;;;;4228502;28;19911;-63
2022/08/20 11:32:50;;;;;;;;;;;32.70;76.70;;;;;;4229635;27;20313;-64
2022/08/20 11:34:51;;;;;;;;;;;32.80;75.80;;;;;;4228547;28;19907;-63
2022/08/20 11:36:52;;;;;;;;;;;32.90;76.20;;;;;;4229456;28;19904;-63
2022/08/20 11:38:53;;;;;;;;;;;32.80;75.90;;;;;;4228478;28;19915;-64
2022/08/20 11:40:54;;;;;;;;;;;32.80;76.40;;;;;;4229503;28;19955;-63
2022/08/20 11:42:55;;;;;;;;;;;32.90;77.10;;;;;;4228239;28;19908;-64
2022/08/20 11:44:56;;;;;;;;;;;32.80;77.40;;;;;;4229335;28;19914;-62
2022/08/20 11:47:02;;;;;;;;;;;32.90;78.10;;;;;;4228091;28;19911;-62
2022/08/20 11:49:03;;;;;;;;;;;32.90;77.80;;;;;;4229322;28;19907;-63
2022/08/20 11:51:04;;;;;;;;;;;32.80;78.20;;;;;;4228044;28;19949;-63
2022/08/20 11:53:05;;;;;;;;;;;32.80;77.90;;;;;;4228891;28;19903;-63